createdAt,value
2019-03-20T00:00:09.597Z,4.57
2019-03-20T00:02:36.297Z,4.37
2019-03-20T00:05:04.272Z,4.19
2019-03-20T00:07:31.386Z,4.10
2019-03-20T00:09:58.094Z,4.08
2019-03-20T00:12:24.819Z,4.15
2019-03-20T00:14:51.846Z,4.20
2019-03-20T00:17:18.845Z,4.20
2019-03-20T00:19:45.589Z,4.17
2019-03-20T00:22:12.322Z,4.12
2019-03-20T00:24:39.135Z,4.22
2019-03-20T00:27:05.865Z,4.18
2019-03-20T00:29:33.073Z,4.21
2019-03-20T00:31:59.845Z,4.13
2019-03-20T00:34:26.585Z,4.14
2019-03-20T00:36:55.309Z,4.18
2019-03-20T00:39:24.938Z,4.23
2019-03-20T00:41:51.635Z,4.33
2019-03-20T00:44:18.358Z,4.17
2019-03-20T00:46:45.076Z,3.94
2019-03-20T00:49:11.789Z,3.84
2019-03-20T00:51:38.500Z,3.83
2019-03-20T00:54:05.244Z,3.82
2019-03-20T00:56:32.118Z,3.85
2019-03-20T00:59:00.724Z,3.86
2019-03-20T01:01:27.585Z,3.96
2019-03-20T01:03:54.324Z,3.83
2019-03-20T01:06:21.040Z,3.89
2019-03-20T01:08:47.731Z,3.87
2019-03-20T01:11:14.756Z,3.80
2019-03-20T01:13:44.353Z,3.79
2019-03-20T01:16:11.077Z,3.75
2019-03-20T01:18:37.782Z,3.83
2019-03-20T01:21:04.513Z,3.83
2019-03-20T01:23:31.580Z,3.92
2019-03-20T01:25:58.333Z,3.84
2019-03-20T01:28:26.269Z,3.56
2019-03-20T01:30:52.967Z,3.66
2019-03-20T01:33:19.661Z,3.66
2019-03-20T01:35:46.371Z,3.54
2019-03-20T01:38:13.076Z,3.30
2019-03-20T01:40:40.588Z,3.40
2019-03-20T01:43:07.780Z,3.50
2019-03-20T01:45:34.524Z,3.57
2019-03-20T01:48:01.605Z,3.60
2019-03-20T01:50:28.332Z,3.52
2019-03-20T01:52:55.351Z,3.60
2019-03-20T01:55:22.432Z,3.67
2019-03-20T01:57:49.115Z,3.56
2019-03-20T02:00:15.864Z,3.46
2019-03-20T02:02:42.557Z,3.38
2019-03-20T02:05:09.284Z,3.42
2019-03-20T02:07:35.994Z,3.39
2019-03-20T02:10:02.731Z,3.30
2019-03-20T02:12:29.460Z,3.22
2019-03-20T02:14:56.278Z,3.31
2019-03-20T02:17:22.962Z,3.27
2019-03-20T02:19:49.660Z,3.29
2019-03-20T02:22:16.382Z,3.32
2019-03-20T02:24:43.109Z,3.54
2019-03-20T02:27:09.829Z,3.54
2019-03-20T02:29:39.372Z,3.50
2019-03-20T02:32:06.072Z,3.38
2019-03-20T02:34:32.786Z,3.17
2019-03-20T02:37:01.017Z,3.06
2019-03-20T02:39:27.724Z,3.18
2019-03-20T02:41:54.454Z,3.28
2019-03-20T02:44:21.145Z,3.30
2019-03-20T02:46:47.863Z,3.27
2019-03-20T02:49:14.580Z,3.17
2019-03-20T02:51:43.199Z,3.11
2019-03-20T02:54:09.898Z,3.18
2019-03-20T02:56:36.763Z,3.16
2019-03-20T02:59:03.480Z,3.05
2019-03-20T03:01:30.999Z,3.00
2019-03-20T03:04:01.327Z,2.97
2019-03-20T03:06:28.078Z,3.00
2019-03-20T03:08:54.799Z,3.04
2019-03-20T03:11:21.513Z,3.05
2019-03-20T03:13:48.613Z,3.04
2019-03-20T03:16:15.343Z,3.01
2019-03-20T03:18:42.070Z,3.18
2019-03-20T03:21:08.758Z,3.12
2019-03-20T03:23:35.440Z,3.12
2019-03-20T03:26:02.288Z,3.02
2019-03-20T03:28:28.985Z,2.82
2019-03-20T03:30:56.065Z,2.84
2019-03-20T03:33:22.800Z,2.87
2019-03-20T03:35:49.509Z,2.95
2019-03-20T03:38:16.184Z,2.92
2019-03-20T03:40:42.900Z,3.05
2019-03-20T03:43:09.638Z,3.06
2019-03-20T03:45:36.432Z,3.22
2019-03-20T03:48:03.158Z,3.17
2019-03-20T03:50:29.912Z,2.99
2019-03-20T03:52:56.642Z,2.87
2019-03-20T03:55:23.351Z,2.78
2019-03-20T03:57:50.090Z,2.90
2019-03-20T04:00:16.799Z,2.84
2019-03-20T04:02:43.540Z,2.75
2019-03-20T04:05:11.953Z,2.59
2019-03-20T04:07:38.650Z,2.60
2019-03-20T04:10:07.123Z,2.71
2019-03-20T04:12:33.859Z,2.67
2019-03-20T04:15:00.564Z,2.53
2019-03-20T04:17:29.558Z,2.47
2019-03-20T04:19:56.231Z,2.53
2019-03-20T04:22:22.953Z,2.58
2019-03-20T04:24:49.979Z,2.63
2019-03-20T04:27:16.687Z,2.59
2019-03-20T04:29:43.459Z,2.55
2019-03-20T04:32:10.164Z,2.67
2019-03-20T04:34:37.214Z,2.65
2019-03-20T04:37:04.251Z,2.71
2019-03-20T04:39:30.974Z,2.62
2019-03-20T04:41:59.950Z,2.53
2019-03-20T04:44:26.661Z,2.49
2019-03-20T04:46:53.717Z,2.45
2019-03-20T04:49:23.188Z,2.64
2019-03-20T04:51:50.032Z,2.63
2019-03-20T04:54:16.719Z,2.66
2019-03-20T04:56:43.470Z,2.73
2019-03-20T04:59:10.198Z,2.72
2019-03-20T05:01:39.274Z,2.69
2019-03-20T05:04:06.102Z,2.61
2019-03-20T05:06:32.836Z,2.55
2019-03-20T05:08:59.585Z,2.49
2019-03-20T05:11:26.281Z,2.35
2019-03-20T05:13:53.403Z,2.41
2019-03-20T05:16:20.107Z,2.50
2019-03-20T05:18:46.815Z,2.52
2019-03-20T05:21:13.640Z,2.52
2019-03-20T05:23:40.352Z,2.37
2019-03-20T05:26:07.083Z,2.34
2019-03-20T05:28:33.804Z,2.32
2019-03-20T05:31:00.512Z,2.41
2019-03-20T05:33:29.310Z,2.44
2019-03-20T05:35:56.012Z,2.44
2019-03-20T05:38:22.752Z,2.38
2019-03-20T05:40:49.676Z,2.27
2019-03-20T05:43:16.636Z,2.35
2019-03-20T05:45:43.635Z,2.49
2019-03-20T05:48:10.350Z,2.50
2019-03-20T05:50:37.066Z,2.55
2019-03-20T05:53:03.756Z,2.51
2019-03-20T05:55:30.467Z,2.36
2019-03-20T05:58:02.739Z,2.41
2019-03-20T06:00:31.074Z,2.41
2019-03-20T06:02:58.359Z,2.50
2019-03-20T06:05:25.285Z,2.42
2019-03-20T06:07:52.048Z,2.40
2019-03-20T06:10:21.638Z,2.53
2019-03-20T06:12:48.694Z,2.44
2019-03-20T06:15:15.417Z,2.42
2019-03-20T06:17:42.137Z,2.48
2019-03-20T06:20:08.894Z,2.42
2019-03-20T06:22:35.572Z,2.40
2019-03-20T06:25:03.255Z,2.49
2019-03-20T06:27:29.979Z,2.45
2019-03-20T06:29:56.723Z,2.50
2019-03-20T06:32:23.442Z,2.54
2019-03-20T06:34:50.156Z,2.60
2019-03-20T06:37:16.880Z,2.71
2019-03-20T06:39:45.712Z,2.76
2019-03-20T06:42:12.443Z,2.86
2019-03-20T06:44:39.168Z,2.93
2019-03-20T06:47:05.928Z,2.82
2019-03-20T06:49:35.660Z,2.79
2019-03-20T06:52:02.438Z,2.88
2019-03-20T06:54:32.312Z,3.04
2019-03-20T06:56:59.032Z,3.05
2019-03-20T07:00:11.548Z,3.09
2019-03-20T07:02:41.772Z,3.10
2019-03-20T07:05:52.030Z,3.23
2019-03-20T07:08:21.183Z,3.32
2019-03-20T07:11:03.874Z,3.36
2019-03-20T07:13:30.608Z,3.36
2019-03-20T07:16:00.616Z,3.54
2019-03-20T07:18:29.686Z,3.67
2019-03-20T07:20:56.415Z,3.74
2019-03-20T07:23:23.126Z,3.89
2019-03-20T07:25:52.504Z,4.01
2019-03-20T07:28:19.246Z,4.01
2019-03-20T07:30:46.258Z,4.21
2019-03-20T07:33:13.403Z,4.38
2019-03-20T07:35:40.137Z,4.55
2019-03-20T07:38:06.926Z,4.69
2019-03-20T07:40:34.716Z,4.53
2019-03-20T07:43:08.698Z,4.57
2019-03-20T07:45:30.078Z,4.73
2019-03-20T07:47:56.820Z,4.92
2019-03-20T07:50:26.837Z,5.02
2019-03-20T07:52:53.996Z,5.16
2019-03-20T07:55:20.742Z,5.41
2019-03-20T07:57:55.761Z,5.42
2019-03-20T08:00:22.490Z,5.47
2019-03-20T08:02:49.254Z,5.65
2019-03-20T08:05:28.490Z,5.65
2019-03-20T08:07:46.672Z,5.74
2019-03-20T08:10:14.680Z,5.94
2019-03-20T08:12:44.257Z,6.11
2019-03-20T08:15:12.314Z,6.25
2019-03-20T08:17:39.121Z,6.35
2019-03-20T08:20:09.593Z,6.36
2019-03-20T08:22:36.468Z,6.36
2019-03-20T08:25:06.651Z,6.07
2019-03-20T08:27:35.465Z,6.11
2019-03-20T08:30:02.275Z,6.58
2019-03-20T08:32:28.970Z,6.48
2019-03-20T08:34:58.449Z,6.48
2019-03-20T08:37:25.261Z,6.89
2019-03-20T08:39:52.254Z,6.89
2019-03-20T08:42:21.036Z,7.26
2019-03-20T08:44:47.772Z,7.72
2019-03-20T08:47:14.512Z,7.72
2019-03-20T08:49:41.291Z,7.82
2019-03-20T08:52:12.312Z,8.22
2019-03-20T08:54:42.444Z,8.22
2019-03-20T08:57:09.158Z,8.33
2019-03-20T08:59:35.886Z,8.38
2019-03-20T09:02:02.627Z,8.38
2019-03-20T09:04:29.628Z,8.28
2019-03-20T09:06:56.360Z,8.56
2019-03-20T09:09:23.127Z,8.87
2019-03-20T09:11:50.126Z,9.10
2019-03-20T09:14:16.860Z,9.31
2019-03-20T09:16:43.706Z,9.47
2019-03-20T09:19:10.555Z,9.70
2019-03-20T09:21:37.297Z,9.70
2019-03-20T09:24:04.187Z,9.89
2019-03-20T09:26:30.905Z,9.97
2019-03-20T09:28:57.653Z,10.11
2019-03-20T09:31:24.379Z,10.20
2019-03-20T09:33:52.571Z,10.32
2019-03-20T09:36:19.500Z,10.42
2019-03-20T09:38:46.715Z,10.39
2019-03-20T09:41:13.431Z,10.44
2019-03-20T09:43:45.865Z,10.48
2019-03-20T09:46:12.911Z,10.63
2019-03-20T09:48:39.649Z,10.92
2019-03-20T09:51:06.751Z,10.94
2019-03-20T09:53:33.625Z,10.99
2019-03-20T09:56:00.422Z,11.03
2019-03-20T09:58:27.291Z,11.12
2019-03-20T10:00:54.632Z,11.24
2019-03-20T10:03:21.321Z,11.23
2019-03-20T10:05:48.115Z,11.30
2019-03-20T10:08:17.830Z,11.33
2019-03-20T10:10:44.683Z,11.41
2019-03-20T10:13:14.287Z,11.35
2019-03-20T10:15:41.114Z,11.43
2019-03-20T10:18:08.227Z,11.14
2019-03-20T10:20:35.123Z,11.06
2019-03-20T10:23:01.882Z,11.09
2019-03-20T10:25:28.675Z,11.30
2019-03-20T10:27:55.849Z,11.14
2019-03-20T10:30:22.597Z,11.25
2019-03-20T10:32:49.335Z,11.52
2019-03-20T10:35:16.061Z,11.72
2019-03-20T10:37:42.747Z,11.87
2019-03-20T10:40:12.053Z,11.89
2019-03-20T10:42:38.835Z,11.99
2019-03-20T10:45:07.055Z,12.11
2019-03-20T10:47:34.180Z,11.87
2019-03-20T10:50:01.244Z,11.65
2019-03-20T10:52:28.267Z,11.52
2019-03-20T10:54:55.016Z,11.74
2019-03-20T10:57:21.733Z,11.87
2019-03-20T10:59:48.462Z,11.99
2019-03-20T11:02:15.307Z,12.32
2019-03-20T11:04:42.104Z,12.52
2019-03-20T11:07:09.127Z,12.65
2019-03-20T11:09:39.453Z,12.70
2019-03-20T11:12:06.171Z,12.70
2019-03-20T11:14:33.341Z,12.91
2019-03-20T11:17:00.127Z,13.20
2019-03-20T11:19:26.843Z,13.41
2019-03-20T11:21:53.535Z,13.47
2019-03-20T11:24:22.067Z,13.10
2019-03-20T11:26:51.432Z,12.92
2019-03-20T11:29:21.618Z,12.94
2019-03-20T11:31:46.792Z,12.93
2019-03-20T11:34:15.735Z,12.92
2019-03-20T11:36:42.699Z,12.86
2019-03-20T11:39:09.654Z,12.78
2019-03-20T11:41:36.407Z,13.09
2019-03-20T11:44:03.103Z,13.37
2019-03-20T11:46:29.818Z,13.44
2019-03-20T11:48:58.151Z,13.11
2019-03-20T11:51:24.919Z,13.20
2019-03-20T11:53:51.805Z,13.11
2019-03-20T11:56:18.624Z,13.02
2019-03-20T11:58:45.305Z,12.84
2019-03-20T12:01:12.177Z,13.00
2019-03-20T12:03:39.629Z,13.30
2019-03-20T12:06:06.342Z,13.17
2019-03-20T12:08:33.118Z,13.47
2019-03-20T12:10:59.947Z,13.63
2019-03-20T12:13:26.669Z,13.78
2019-03-20T12:15:53.395Z,13.95
2019-03-20T12:18:20.631Z,14.21
2019-03-20T12:20:47.411Z,14.38
2019-03-20T12:23:14.251Z,14.55
2019-03-20T12:25:42.715Z,14.74
2019-03-20T12:28:12.083Z,14.53
2019-03-20T12:30:38.812Z,14.48
2019-03-20T12:33:05.569Z,14.06
2019-03-20T12:35:32.321Z,14.31
2019-03-20T12:37:59.050Z,14.79
2019-03-20T12:40:30.078Z,14.91
2019-03-20T12:42:56.932Z,15.19
2019-03-20T12:45:25.721Z,15.38
2019-03-20T12:47:52.783Z,15.40
2019-03-20T12:50:19.720Z,15.49
2019-03-20T12:52:46.422Z,15.65
2019-03-20T12:55:13.371Z,15.72
2019-03-20T12:57:40.150Z,15.62
2019-03-20T13:00:10.885Z,15.79
2019-03-20T13:02:37.679Z,15.93
2019-03-20T13:05:04.737Z,15.86
2019-03-20T13:07:31.501Z,15.82
2019-03-20T13:10:03.255Z,15.90
2019-03-20T13:12:47.517Z,15.97
2019-03-20T13:15:16.803Z,15.74
2019-03-20T13:17:43.805Z,16.02
2019-03-20T13:20:10.583Z,16.20
2019-03-20T13:22:37.339Z,16.47
2019-03-20T13:25:05.893Z,16.62
2019-03-20T13:27:33.954Z,16.75
2019-03-20T13:30:00.941Z,16.84
2019-03-20T13:32:27.675Z,16.93
2019-03-20T13:34:54.382Z,16.67
2019-03-20T13:37:21.088Z,16.70
2019-03-20T13:39:48.067Z,16.82
2019-03-20T13:42:14.867Z,17.04
2019-03-20T13:44:42.055Z,17.11
2019-03-20T13:47:11.111Z,17.32
2019-03-20T13:49:38.193Z,16.90
2019-03-20T13:52:05.031Z,16.68
2019-03-20T13:54:36.605Z,16.62
2019-03-20T13:57:03.338Z,16.56
2019-03-20T13:59:30.118Z,16.82
2019-03-20T14:01:56.939Z,17.31
2019-03-20T14:04:23.845Z,17.55
2019-03-20T14:06:50.830Z,16.93
2019-03-20T14:09:19.913Z,16.28
2019-03-20T14:11:47.733Z,16.40
2019-03-20T14:14:14.733Z,16.79
2019-03-20T14:16:44.720Z,17.39
2019-03-20T14:19:14.420Z,17.71
2019-03-20T14:21:41.321Z,18.15
2019-03-20T14:24:08.316Z,17.22
2019-03-20T14:26:35.034Z,16.94
2019-03-20T14:29:01.783Z,17.36
2019-03-20T14:31:35.394Z,17.74
2019-03-20T14:34:02.234Z,17.89
2019-03-20T14:36:29.541Z,18.25
2019-03-20T14:38:56.650Z,18.77
2019-03-20T14:41:24.189Z,18.41
2019-03-20T14:43:51.645Z,17.39
2019-03-20T14:46:21.700Z,17.49
2019-03-20T14:48:48.424Z,17.87
2019-03-20T14:51:15.155Z,18.61
2019-03-20T14:53:41.896Z,19.18
2019-03-20T14:56:08.917Z,19.53
2019-03-20T14:58:37.529Z,19.40
2019-03-20T15:01:04.646Z,20.06
2019-03-20T15:03:31.566Z,20.54
2019-03-20T15:05:58.334Z,20.41
2019-03-20T15:08:25.296Z,20.06
2019-03-20T15:10:52.116Z,19.81
2019-03-20T15:13:19.006Z,18.84
2019-03-20T15:16:00.999Z,18.18
2019-03-20T15:18:30.896Z,18.98
2019-03-20T15:20:57.852Z,19.75
2019-03-20T15:23:27.865Z,20.27
2019-03-20T15:25:54.760Z,19.38
2019-03-20T15:28:21.534Z,19.63
2019-03-20T15:30:48.259Z,20.28
2019-03-20T15:33:15.280Z,20.82
2019-03-20T15:35:42.388Z,21.10
2019-03-20T15:38:09.093Z,21.02
2019-03-20T15:40:35.811Z,19.58
2019-03-20T15:43:02.768Z,18.96
2019-03-20T15:45:29.998Z,18.88
2019-03-20T15:47:56.710Z,18.33
2019-03-20T15:50:23.426Z,18.05
2019-03-20T15:52:50.706Z,17.98
2019-03-20T15:55:23.605Z,17.69
2019-03-20T15:57:53.186Z,17.53
2019-03-20T16:00:19.926Z,17.22
2019-03-20T16:02:48.066Z,17.18
2019-03-20T16:05:14.798Z,17.12
2019-03-20T16:07:41.746Z,17.01
2019-03-20T16:10:13.814Z,16.75
2019-03-20T16:12:42.210Z,16.56
2019-03-20T16:15:12.984Z,16.39
2019-03-20T16:17:40.052Z,16.21
2019-03-20T16:20:08.020Z,15.71
2019-03-20T16:22:34.790Z,15.69
2019-03-20T16:25:01.704Z,15.72
2019-03-20T16:27:28.571Z,15.69
2019-03-20T16:29:55.361Z,15.65
2019-03-20T16:32:22.545Z,15.77
2019-03-20T16:34:49.705Z,15.60
2019-03-20T16:37:16.428Z,15.55
2019-03-20T16:39:43.167Z,15.54
2019-03-20T16:42:09.928Z,15.52
2019-03-20T16:44:36.751Z,15.52
2019-03-20T16:47:05.375Z,15.42
2019-03-20T16:49:32.474Z,15.37
2019-03-20T16:51:59.980Z,15.29
2019-03-20T16:54:26.737Z,15.05
2019-03-20T16:56:53.556Z,15.15
2019-03-20T16:59:23.731Z,15.15
2019-03-20T17:01:50.433Z,15.19
2019-03-20T17:04:18.364Z,15.13
2019-03-20T17:06:45.217Z,15.13
2019-03-20T17:09:11.946Z,14.99
2019-03-20T17:11:38.856Z,14.87
2019-03-20T17:14:06.026Z,14.82
2019-03-20T17:16:32.840Z,14.85
2019-03-20T17:18:59.567Z,14.71
2019-03-20T17:21:26.296Z,14.65
2019-03-20T17:23:54.805Z,14.68
2019-03-20T17:26:21.561Z,14.60
2019-03-20T17:28:48.602Z,14.48
2019-03-20T17:31:15.352Z,14.52
2019-03-20T17:33:42.126Z,14.51
2019-03-20T17:36:09.007Z,14.55
2019-03-20T17:38:40.688Z,14.49
2019-03-20T17:41:07.380Z,14.44
2019-03-20T17:43:34.120Z,14.36
2019-03-20T17:46:00.924Z,14.38
2019-03-20T17:48:28.200Z,14.28
2019-03-20T17:50:55.154Z,14.17
2019-03-20T17:53:21.990Z,14.12
2019-03-20T17:55:48.755Z,14.10
2019-03-20T17:58:15.589Z,14.07
2019-03-20T18:00:44.881Z,14.02
2019-03-20T18:03:27.825Z,13.99
2019-03-20T18:06:01.146Z,13.85
2019-03-20T18:08:28.110Z,13.82
2019-03-20T18:10:54.966Z,13.84
2019-03-20T18:13:22.414Z,13.85
2019-03-20T18:15:49.158Z,13.77
2019-03-20T18:18:15.918Z,13.68
2019-03-20T18:20:44.188Z,13.56
2019-03-20T18:23:14.340Z,13.42
2019-03-20T18:25:42.301Z,13.21
2019-03-20T18:28:09.388Z,13.10
2019-03-20T18:30:36.567Z,12.98
2019-03-20T18:33:04.349Z,12.88
2019-03-20T18:35:31.108Z,12.92
2019-03-20T18:37:57.941Z,12.83
2019-03-20T18:40:32.690Z,12.72
2019-03-20T18:43:04.363Z,12.62
2019-03-20T18:45:31.072Z,12.46
2019-03-20T18:47:57.857Z,12.37
2019-03-20T18:50:24.949Z,12.36
2019-03-20T18:52:55.003Z,12.24
2019-03-20T18:55:21.757Z,11.98
2019-03-20T18:57:48.523Z,11.76
2019-03-20T19:00:20.504Z,11.66
2019-03-20T19:02:50.926Z,11.47
2019-03-20T19:05:23.465Z,11.35
2019-03-20T19:07:50.287Z,11.31
2019-03-20T19:10:17.109Z,11.40
2019-03-20T19:12:43.833Z,11.23
2019-03-20T19:15:16.154Z,11.17
2019-03-20T19:17:42.912Z,11.02
2019-03-20T19:20:12.081Z,10.89
2019-03-20T19:22:38.820Z,10.74
2019-03-20T19:25:06.862Z,10.70
2019-03-20T19:27:33.660Z,10.50
2019-03-20T19:30:00.461Z,10.37
2019-03-20T19:32:27.222Z,10.30
2019-03-20T19:34:53.979Z,10.28
2019-03-20T19:37:21.646Z,10.16
2019-03-20T19:39:49.614Z,9.98
2019-03-20T19:42:20.155Z,10.08
2019-03-20T19:44:45.100Z,9.92
2019-03-20T19:47:11.845Z,9.86
2019-03-20T19:49:39.012Z,9.77
2019-03-20T19:52:05.750Z,9.75
2019-03-20T19:54:32.616Z,9.74
2019-03-20T19:56:59.533Z,9.74
2019-03-20T19:59:26.412Z,9.67
2019-03-20T20:01:53.155Z,9.50
2019-03-20T20:04:19.943Z,9.58
2019-03-20T20:06:47.471Z,9.59
2019-03-20T20:09:14.387Z,9.60
2019-03-20T20:11:44.212Z,9.59
2019-03-20T20:14:11.849Z,9.33
2019-03-20T20:16:38.562Z,9.30
2019-03-20T20:19:05.547Z,9.22
2019-03-20T20:21:32.284Z,9.30
2019-03-20T20:23:59.015Z,9.30
2019-03-20T20:26:26.049Z,9.21
2019-03-20T20:28:52.799Z,9.17
2019-03-20T20:31:19.564Z,8.92
2019-03-20T20:33:46.273Z,8.83
2019-03-20T20:36:13.007Z,8.82
2019-03-20T20:38:40.169Z,8.70
2019-03-20T20:41:06.919Z,8.58
2019-03-20T20:43:34.469Z,8.65
2019-03-20T20:46:01.713Z,8.49
2019-03-20T20:48:28.509Z,8.37
2019-03-20T20:50:55.396Z,8.27
2019-03-20T20:53:22.137Z,8.20
2019-03-20T20:55:48.977Z,8.12
2019-03-20T20:58:15.749Z,8.11
2019-03-20T21:00:42.659Z,8.05
2019-03-20T21:03:09.521Z,8.11
2019-03-20T21:05:36.227Z,8.19
2019-03-20T21:08:02.984Z,8.13
2019-03-20T21:10:29.744Z,8.08
2019-03-20T21:12:57.617Z,8.08
2019-03-20T21:15:52.013Z,8.18
2019-03-20T21:19:01.009Z,8.20
2019-03-20T21:21:44.568Z,8.12
2019-03-20T21:24:24.080Z,7.85
2019-03-20T21:27:30.082Z,7.71
2019-03-20T21:30:28.745Z,7.73
2019-03-20T21:32:56.464Z,7.70
2019-03-20T21:36:16.678Z,7.53
2019-03-20T21:38:45.459Z,7.63
2019-03-20T21:41:50.781Z,7.44
2019-03-20T21:45:06.087Z,7.34
2019-03-20T21:47:35.743Z,7.34
2019-03-20T21:50:55.711Z,7.28
2019-03-20T21:53:48.465Z,7.27
2019-03-20T21:56:23.192Z,7.20
2019-03-20T21:59:13.767Z,7.29
2019-03-20T22:02:18.745Z,7.33
2019-03-20T22:04:46.046Z,7.04
2019-03-20T22:07:13.411Z,7.19
2019-03-20T22:10:30.035Z,7.08
2019-03-20T22:13:18.809Z,6.82
2019-03-20T22:16:22.313Z,6.85
2019-03-20T22:19:39.402Z,6.80
2019-03-20T22:22:34.591Z,6.82
2019-03-20T22:25:52.893Z,6.84
2019-03-20T22:29:26.202Z,6.70
2019-03-20T22:32:19.553Z,6.73
2019-03-20T22:35:19.034Z,6.83
2019-03-20T22:37:46.327Z,6.84
2019-03-20T22:41:04.052Z,6.84
2019-03-20T22:43:40.695Z,6.53
2019-03-20T22:46:49.286Z,6.53
2019-03-20T22:49:53.041Z,6.47
2019-03-20T22:52:44.339Z,6.48
2019-03-20T22:55:35.663Z,6.35
2019-03-20T22:58:43.767Z,6.35
2019-03-20T23:01:35.074Z,6.27
2019-03-20T23:04:07.672Z,6.15
2019-03-20T23:06:34.950Z,6.15
2019-03-20T23:09:03.657Z,6.13
2019-03-20T23:11:31.232Z,6.13
2019-03-20T23:13:58.533Z,6.02
2019-03-20T23:16:26.308Z,6.02
2019-03-20T23:18:53.678Z,6.00
2019-03-20T23:21:20.958Z,5.99
2019-03-20T23:23:48.232Z,5.91
2019-03-20T23:26:15.819Z,5.87
2019-03-20T23:28:43.110Z,5.80
2019-03-20T23:31:10.348Z,5.81
2019-03-20T23:33:37.821Z,5.81
2019-03-20T23:36:05.755Z,5.60
2019-03-20T23:38:33.795Z,5.55
2019-03-20T23:41:01.087Z,5.64
2019-03-20T23:43:28.353Z,5.59
2019-03-20T23:45:55.701Z,5.50
2019-03-20T23:48:30.701Z,5.54
2019-03-20T23:51:05.255Z,5.44
2019-03-20T23:53:33.174Z,5.44
2019-03-20T23:56:00.564Z,5.37
2019-03-20T23:58:27.942Z,5.37
